sensor_id;sensor_type;location;lat;lon;timestamp;pressure;altitude;pressure_sealevel;temperature;humidity
78857;BME280;68207;50.078;19.936;2023-04-07T00:00:48;98943.78;;;0.97;84.38
78857;BME280;68207;50.078;19.936;2023-04-07T00:03:13;98943.47;;;0.99;84.25
78857;BME280;68207;50.078;19.936;2023-04-07T00:05:38;98938.83;;;1.00;84.24
78857;BME280;68207;50.078;19.936;2023-04-07T00:08:04;98939.73;;;1.04;84.02
78857;BME280;68207;50.078;19.936;2023-04-07T00:10:29;98937.92;;;1.03;84.18
78857;BME280;68207;50.078;19.936;2023-04-07T00:12:55;98941.43;;;1.05;83.87
78857;BME280;68207;50.078;19.936;2023-04-07T00:15:20;98931.16;;;1.08;83.85
78857;BME280;68207;50.078;19.936;2023-04-07T00:17:45;98929.71;;;1.11;84.07
78857;BME280;68207;50.078;19.936;2023-04-07T00:20:11;98928.81;;;1.09;84.07
78857;BME280;68207;50.078;19.936;2023-04-07T00:22:36;98926.59;;;1.06;83.98
78857;BME280;68207;50.078;19.936;2023-04-07T00:25:02;98927.98;;;1.06;83.62
78857;BME280;68207;50.078;19.936;2023-04-07T00:27:27;98923.15;;;1.08;84.02
78857;BME280;68207;50.078;19.936;2023-04-07T00:29:53;98916.39;;;1.12;83.91
78857;BME280;68207;50.078;19.936;2023-04-07T00:32:21;98916.05;;;1.14;83.79
78857;BME280;68207;50.078;19.936;2023-04-07T00:34:47;98915.36;;;1.14;83.78
78857;BME280;68207;50.078;19.936;2023-04-07T00:37:12;98913.32;;;1.13;83.81
78857;BME280;68207;50.078;19.936;2023-04-07T00:39:38;98915.13;;;1.12;83.58
78857;BME280;68207;50.078;19.936;2023-04-07T00:42:04;98915.46;;;1.13;83.44
78857;BME280;68207;50.078;19.936;2023-04-07T00:44:35;98910.98;;;1.14;83.88
78857;BME280;68207;50.078;19.936;2023-04-07T00:47:00;98910.61;;;1.14;83.54
78857;BME280;68207;50.078;19.936;2023-04-07T00:49:46;98912.75;;;1.14;83.54
78857;BME280;68207;50.078;19.936;2023-04-07T00:52:35;98907.93;;;1.13;83.64
78857;BME280;68207;50.078;19.936;2023-04-07T00:55:03;98904.77;;;1.14;83.57
78857;BME280;68207;50.078;19.936;2023-04-07T00:57:34;98907.80;;;1.15;83.98
78857;BME280;68207;50.078;19.936;2023-04-07T01:00:22;98901.80;;;1.16;83.60
78857;BME280;68207;50.078;19.936;2023-04-07T01:03:27;98900.87;;;1.17;83.67
78857;BME280;68207;50.078;19.936;2023-04-07T01:06:01;98896.58;;;1.14;83.72
78857;BME280;68207;50.078;19.936;2023-04-07T01:08:53;98894.82;;;1.12;83.67
78857;BME280;68207;50.078;19.936;2023-04-07T01:12:11;98897.55;;;1.13;83.65
78857;BME280;68207;50.078;19.936;2023-04-07T01:14:17;98898.26;;;1.12;83.53
78857;BME280;68207;50.078;19.936;2023-04-07T01:16:50;98900.48;;;1.13;83.50
78857;BME280;68207;50.078;19.936;2023-04-07T01:25:01;98907.45;;;1.13;83.87
78857;BME280;68207;50.078;19.936;2023-04-07T01:27:42;98907.02;;;1.18;83.67
78857;BME280;68207;50.078;19.936;2023-04-07T01:30:14;98907.44;;;1.20;83.48
78857;BME280;68207;50.078;19.936;2023-04-07T01:33:00;98906.67;;;1.21;83.77
78857;BME280;68207;50.078;19.936;2023-04-07T01:35:45;98898.06;;;1.20;83.36
78857;BME280;68207;50.078;19.936;2023-04-07T01:38:11;98896.79;;;1.23;83.19
78857;BME280;68207;50.078;19.936;2023-04-07T01:40:41;98898.52;;;1.27;83.34
78857;BME280;68207;50.078;19.936;2023-04-07T01:43:11;98884.00;;;1.28;83.38
78857;BME280;68207;50.078;19.936;2023-04-07T01:45:37;98882.39;;;1.29;83.46
78857;BME280;68207;50.078;19.936;2023-04-07T01:48:15;98873.56;;;1.26;83.53
78857;BME280;68207;50.078;19.936;2023-04-07T01:50:42;98867.34;;;1.23;83.48
78857;BME280;68207;50.078;19.936;2023-04-07T01:53:08;98864.30;;;1.24;83.58
78857;BME280;68207;50.078;19.936;2023-04-07T01:55:36;98866.17;;;1.24;83.33
78857;BME280;68207;50.078;19.936;2023-04-07T01:58:05;98867.97;;;1.24;83.63
78857;BME280;68207;50.078;19.936;2023-04-07T02:00:33;98870.23;;;1.22;83.30
78857;BME280;68207;50.078;19.936;2023-04-07T02:03:06;98881.55;;;1.19;83.58
78857;BME280;68207;50.078;19.936;2023-04-07T02:08:23;98894.48;;;1.21;83.65
78857;BME280;68207;50.078;19.936;2023-04-07T02:10:56;98891.17;;;1.18;83.56
78857;BME280;68207;50.078;19.936;2023-04-07T02:13:36;98888.48;;;1.17;83.65
78857;BME280;68207;50.078;19.936;2023-04-07T02:16:53;98886.29;;;1.17;83.71
78857;BME280;68207;50.078;19.936;2023-04-07T02:19:23;98879.91;;;1.16;84.02
78857;BME280;68207;50.078;19.936;2023-04-07T02:22:09;98877.61;;;1.18;83.64
78857;BME280;68207;50.078;19.936;2023-04-07T02:24:35;98874.32;;;1.21;83.62
78857;BME280;68207;50.078;19.936;2023-04-07T02:27:03;98875.14;;;1.21;83.36
78857;BME280;68207;50.078;19.936;2023-04-07T02:29:34;98873.52;;;1.22;83.66
78857;BME280;68207;50.078;19.936;2023-04-07T02:32:00;98873.42;;;1.21;83.60
78857;BME280;68207;50.078;19.936;2023-04-07T02:34:25;98873.09;;;1.21;83.70
78857;BME280;68207;50.078;19.936;2023-04-07T02:36:51;98873.02;;;1.22;83.57
78857;BME280;68207;50.078;19.936;2023-04-07T02:39:16;98871.63;;;1.24;83.90
78857;BME280;68207;50.078;19.936;2023-04-07T02:41:42;98870.69;;;1.25;83.60
78857;BME280;68207;50.078;19.936;2023-04-07T02:44:07;98869.69;;;1.24;83.66
78857;BME280;68207;50.078;19.936;2023-04-07T02:46:33;98871.42;;;1.22;83.94
78857;BME280;68207;50.078;19.936;2023-04-07T02:48:58;98872.25;;;1.20;83.57
78857;BME280;68207;50.078;19.936;2023-04-07T02:51:23;98869.52;;;1.20;83.61
78857;BME280;68207;50.078;19.936;2023-04-07T02:53:49;98869.16;;;1.22;83.76
78857;BME280;68207;50.078;19.936;2023-04-07T02:56:15;98871.27;;;1.24;83.87
78857;BME280;68207;50.078;19.936;2023-04-07T02:58:40;98868.27;;;1.27;83.39
78857;BME280;68207;50.078;19.936;2023-04-07T03:01:06;98866.47;;;1.25;83.71
78857;BME280;68207;50.078;19.936;2023-04-07T03:03:31;98868.17;;;1.24;83.94
78857;BME280;68207;50.078;19.936;2023-04-07T03:05:57;98865.77;;;1.21;83.78
78857;BME280;68207;50.078;19.936;2023-04-07T03:08:22;98871.81;;;1.22;83.85
78857;BME280;68207;50.078;19.936;2023-04-07T03:10:48;98866.80;;;1.23;83.79
78857;BME280;68207;50.078;19.936;2023-04-07T03:13:13;98860.95;;;1.25;84.09
78857;BME280;68207;50.078;19.936;2023-04-07T03:15:41;98863.20;;;1.22;84.06
78857;BME280;68207;50.078;19.936;2023-04-07T03:18:07;98858.66;;;1.18;84.27
78857;BME280;68207;50.078;19.936;2023-04-07T03:20:32;98856.04;;;1.16;84.10
78857;BME280;68207;50.078;19.936;2023-04-07T03:22:58;98853.00;;;1.17;84.02
78857;BME280;68207;50.078;19.936;2023-04-07T03:25:24;98856.08;;;1.18;84.01
78857;BME280;68207;50.078;19.936;2023-04-07T03:27:49;98857.58;;;1.19;84.35
78857;BME280;68207;50.078;19.936;2023-04-07T03:30:15;98858.45;;;1.19;84.14
78857;BME280;68207;50.078;19.936;2023-04-07T03:32:40;98855.96;;;1.19;84.18
78857;BME280;68207;50.078;19.936;2023-04-07T03:35:06;98852.69;;;1.19;83.93
78857;BME280;68207;50.078;19.936;2023-04-07T03:37:31;98853.41;;;1.21;84.06
78857;BME280;68207;50.078;19.936;2023-04-07T03:39:57;98856.79;;;1.24;83.98
78857;BME280;68207;50.078;19.936;2023-04-07T03:42:22;98859.55;;;1.25;84.17
78857;BME280;68207;50.078;19.936;2023-04-07T03:44:47;98865.25;;;1.23;84.30
78857;BME280;68207;50.078;19.936;2023-04-07T03:47:13;98868.17;;;1.21;83.94
78857;BME280;68207;50.078;19.936;2023-04-07T03:49:38;98871.30;;;1.22;84.30
78857;BME280;68207;50.078;19.936;2023-04-07T03:52:04;98873.10;;;1.23;84.17
78857;BME280;68207;50.078;19.936;2023-04-07T03:54:38;98876.27;;;1.25;84.01
78857;BME280;68207;50.078;19.936;2023-04-07T03:57:03;98867.06;;;1.26;84.05
78857;BME280;68207;50.078;19.936;2023-04-07T03:59:29;98862.91;;;1.26;84.14
78857;BME280;68207;50.078;19.936;2023-04-07T04:01:55;98864.45;;;1.25;84.35
78857;BME280;68207;50.078;19.936;2023-04-07T04:04:20;98871.05;;;1.25;83.89
78857;BME280;68207;50.078;19.936;2023-04-07T04:06:48;98872.86;;;1.24;84.22
78857;BME280;68207;50.078;19.936;2023-04-07T04:09:14;98878.07;;;1.24;84.04
78857;BME280;68207;50.078;19.936;2023-04-07T04:11:39;98884.59;;;1.27;84.15
78857;BME280;68207;50.078;19.936;2023-04-07T04:14:05;98888.98;;;1.27;83.87
78857;BME280;68207;50.078;19.936;2023-04-07T04:16:33;98885.35;;;1.26;84.14
78857;BME280;68207;50.078;19.936;2023-04-07T04:19:00;98890.73;;;1.27;83.85
78857;BME280;68207;50.078;19.936;2023-04-07T04:21:25;98888.90;;;1.26;84.28
78857;BME280;68207;50.078;19.936;2023-04-07T04:23:51;98887.05;;;1.27;84.19
78857;BME280;68207;50.078;19.936;2023-04-07T04:26:17;98887.73;;;1.29;84.18
78857;BME280;68207;50.078;19.936;2023-04-07T04:28:42;98892.27;;;1.31;84.27
78857;BME280;68207;50.078;19.936;2023-04-07T04:31:07;98893.42;;;1.32;84.06
78857;BME280;68207;50.078;19.936;2023-04-07T04:33:33;98885.70;;;1.31;84.19
78857;BME280;68207;50.078;19.936;2023-04-07T04:35:58;98862.16;;;1.29;83.90
78857;BME280;68207;50.078;19.936;2023-04-07T04:38:23;98831.21;;;1.31;84.28
78857;BME280;68207;50.078;19.936;2023-04-07T04:40:49;98827.64;;;1.35;84.38
78857;BME280;68207;50.078;19.936;2023-04-07T04:43:17;98854.36;;;1.36;84.24
78857;BME280;68207;50.078;19.936;2023-04-07T04:45:42;98887.38;;;1.39;84.29
78857;BME280;68207;50.078;19.936;2023-04-07T04:48:08;98885.70;;;1.40;83.89
78857;BME280;68207;50.078;19.936;2023-04-07T04:50:44;98872.84;;;1.42;83.88
78857;BME280;68207;50.078;19.936;2023-04-07T04:53:09;98875.09;;;1.45;83.75
78857;BME280;68207;50.078;19.936;2023-04-07T04:55:35;98885.48;;;1.46;83.91
78857;BME280;68207;50.078;19.936;2023-04-07T04:58:00;98888.49;;;1.47;83.93
78857;BME280;68207;50.078;19.936;2023-04-07T05:00:26;98887.94;;;1.48;84.12
78857;BME280;68207;50.078;19.936;2023-04-07T05:02:52;98890.88;;;1.48;83.61
78857;BME280;68207;50.078;19.936;2023-04-07T05:05:17;98884.52;;;1.45;83.96
78857;BME280;68207;50.078;19.936;2023-04-07T05:07:43;98883.52;;;1.44;83.65
78857;BME280;68207;50.078;19.936;2023-04-07T05:10:08;98889.45;;;1.46;83.93
78857;BME280;68207;50.078;19.936;2023-04-07T05:12:37;98899.11;;;1.47;83.81
78857;BME280;68207;50.078;19.936;2023-04-07T05:15:02;98915.40;;;1.50;83.80
78857;BME280;68207;50.078;19.936;2023-04-07T05:17:28;98912.13;;;1.52;83.59
78857;BME280;68207;50.078;19.936;2023-04-07T05:19:53;98906.40;;;1.50;83.85
78857;BME280;68207;50.078;19.936;2023-04-07T05:22:18;98902.09;;;1.49;83.92
78857;BME280;68207;50.078;19.936;2023-04-07T05:24:44;98895.51;;;1.51;83.83
78857;BME280;68207;50.078;19.936;2023-04-07T05:27:09;98894.95;;;1.51;83.87
78857;BME280;68207;50.078;19.936;2023-04-07T05:29:35;98890.17;;;1.50;83.92
78857;BME280;68207;50.078;19.936;2023-04-07T05:32:00;98889.54;;;1.49;84.23
78857;BME280;68207;50.078;19.936;2023-04-07T05:34:26;98889.45;;;1.50;84.05
78857;BME280;68207;50.078;19.936;2023-04-07T05:36:52;98887.66;;;1.53;84.09
78857;BME280;68207;50.078;19.936;2023-04-07T05:39:17;98891.11;;;1.58;84.05
78857;BME280;68207;50.078;19.936;2023-04-07T05:41:42;98895.83;;;1.62;83.52
78857;BME280;68207;50.078;19.936;2023-04-07T05:44:08;98889.86;;;1.63;83.52
78857;BME280;68207;50.078;19.936;2023-04-07T05:46:33;98891.55;;;1.64;83.79
78857;BME280;68207;50.078;19.936;2023-04-07T05:48:58;98892.87;;;1.65;83.67
78857;BME280;68207;50.078;19.936;2023-04-07T05:51:24;98892.61;;;1.68;83.82
78857;BME280;68207;50.078;19.936;2023-04-07T05:53:50;98892.28;;;1.72;83.30
78857;BME280;68207;50.078;19.936;2023-04-07T05:56:16;98891.09;;;1.74;83.46
78857;BME280;68207;50.078;19.936;2023-04-07T05:58:41;98892.92;;;1.73;83.71
78857;BME280;68207;50.078;19.936;2023-04-07T06:01:07;98891.61;;;1.72;83.66
78857;BME280;68207;50.078;19.936;2023-04-07T06:03:32;98891.89;;;1.70;83.63
78857;BME280;68207;50.078;19.936;2023-04-07T06:05:58;98891.16;;;1.71;83.37
78857;BME280;68207;50.078;19.936;2023-04-07T06:08:23;98880.42;;;1.74;83.63
78857;BME280;68207;50.078;19.936;2023-04-07T06:10:49;98873.56;;;1.75;83.46
78857;BME280;68207;50.078;19.936;2023-04-07T06:13:14;98874.73;;;1.76;83.30
78857;BME280;68207;50.078;19.936;2023-04-07T06:15:39;98869.48;;;1.76;83.43
78857;BME280;68207;50.078;19.936;2023-04-07T06:18:05;98870.27;;;1.75;83.36
78857;BME280;68207;50.078;19.936;2023-04-07T06:20:30;98875.85;;;1.78;83.38
78857;BME280;68207;50.078;19.936;2023-04-07T06:22:56;98881.83;;;1.79;83.30
78857;BME280;68207;50.078;19.936;2023-04-07T06:25:21;98883.88;;;1.82;83.21
78857;BME280;68207;50.078;19.936;2023-04-07T06:27:47;98886.21;;;1.83;83.22
78857;BME280;68207;50.078;19.936;2023-04-07T06:30:13;98889.86;;;1.86;82.99
78857;BME280;68207;50.078;19.936;2023-04-07T06:32:38;98895.74;;;1.84;83.36
78857;BME280;68207;50.078;19.936;2023-04-07T06:35:04;98897.42;;;1.84;83.01
78857;BME280;68207;50.078;19.936;2023-04-07T06:37:29;98900.58;;;1.91;83.16
78857;BME280;68207;50.078;19.936;2023-04-07T06:39:55;98891.35;;;1.97;83.08
78857;BME280;68207;50.078;19.936;2023-04-07T06:42:20;98879.77;;;1.96;83.01
78857;BME280;68207;50.078;19.936;2023-04-07T06:44:46;98882.27;;;1.93;82.83
78857;BME280;68207;50.078;19.936;2023-04-07T06:47:11;98877.83;;;1.90;83.05
78857;BME280;68207;50.078;19.936;2023-04-07T06:49:37;98871.65;;;1.89;82.96
78857;BME280;68207;50.078;19.936;2023-04-07T06:52:03;98876.26;;;1.90;82.98
78857;BME280;68207;50.078;19.936;2023-04-07T06:54:30;98877.60;;;1.91;83.15
78857;BME280;68207;50.078;19.936;2023-04-07T06:56:56;98888.45;;;1.88;83.05
78857;BME280;68207;50.078;19.936;2023-04-07T06:59:21;98891.55;;;1.86;83.12
78857;BME280;68207;50.078;19.936;2023-04-07T07:01:47;98885.70;;;1.88;83.22
78857;BME280;68207;50.078;19.936;2023-04-07T07:04:13;98883.67;;;1.91;83.33
78857;BME280;68207;50.078;19.936;2023-04-07T07:06:38;98875.77;;;1.92;83.29
78857;BME280;68207;50.078;19.936;2023-04-07T07:09:04;98874.81;;;1.93;83.28
78857;BME280;68207;50.078;19.936;2023-04-07T07:11:29;98879.38;;;1.95;83.45
78857;BME280;68207;50.078;19.936;2023-04-07T07:13:54;98882.26;;;1.96;83.15
78857;BME280;68207;50.078;19.936;2023-04-07T07:16:20;98885.97;;;2.02;83.16
78857;BME280;68207;50.078;19.936;2023-04-07T07:18:48;98891.81;;;2.09;83.29
78857;BME280;68207;50.078;19.936;2023-04-07T07:21:13;98895.26;;;2.14;82.78
78857;BME280;68207;50.078;19.936;2023-04-07T07:23:39;98894.44;;;2.17;82.76
78857;BME280;68207;50.078;19.936;2023-04-07T07:26:04;98890.44;;;2.16;82.60
78857;BME280;68207;50.078;19.936;2023-04-07T07:28:29;98894.81;;;2.15;82.71
78857;BME280;68207;50.078;19.936;2023-04-07T07:30:55;98884.77;;;2.14;82.74
78857;BME280;68207;50.078;19.936;2023-04-07T07:33:20;98884.48;;;2.16;82.56
78857;BME280;68207;50.078;19.936;2023-04-07T07:35:49;98890.20;;;2.21;82.76
78857;BME280;68207;50.078;19.936;2023-04-07T07:38:14;98890.77;;;2.22;82.50
78857;BME280;68207;50.078;19.936;2023-04-07T07:40:40;98893.84;;;2.21;82.62
78857;BME280;68207;50.078;19.936;2023-04-07T07:43:05;98892.76;;;2.19;82.66
78857;BME280;68207;50.078;19.936;2023-04-07T07:45:31;98893.96;;;2.17;82.64
78857;BME280;68207;50.078;19.936;2023-04-07T07:47:56;98898.27;;;2.18;82.60
78857;BME280;68207;50.078;19.936;2023-04-07T07:50:21;98900.13;;;2.16;82.40
78857;BME280;68207;50.078;19.936;2023-04-07T07:52:47;98902.30;;;2.17;82.39
78857;BME280;68207;50.078;19.936;2023-04-07T07:55:12;98899.61;;;2.20;82.57
78857;BME280;68207;50.078;19.936;2023-04-07T07:57:38;98901.85;;;2.24;82.61
78857;BME280;68207;50.078;19.936;2023-04-07T08:00:04;98895.71;;;2.24;82.63
78857;BME280;68207;50.078;19.936;2023-04-07T08:02:29;98896.23;;;2.24;82.59
78857;BME280;68207;50.078;19.936;2023-04-07T08:04:56;98895.15;;;2.25;82.57
78857;BME280;68207;50.078;19.936;2023-04-07T08:07:22;98893.71;;;2.27;82.63
78857;BME280;68207;50.078;19.936;2023-04-07T08:09:47;98895.77;;;2.30;82.67
78857;BME280;68207;50.078;19.936;2023-04-07T08:12:14;98891.00;;;2.31;82.60
78857;BME280;68207;50.078;19.936;2023-04-07T08:14:39;98892.06;;;2.33;82.68
78857;BME280;68207;50.078;19.936;2023-04-07T08:17:05;98894.48;;;2.37;82.63
78857;BME280;68207;50.078;19.936;2023-04-07T08:19:30;98896.53;;;2.42;82.57
78857;BME280;68207;50.078;19.936;2023-04-07T08:21:55;98893.58;;;2.44;82.47
78857;BME280;68207;50.078;19.936;2023-04-07T08:24:21;98897.85;;;2.43;82.50
78857;BME280;68207;50.078;19.936;2023-04-07T08:26:46;98899.43;;;2.39;82.43
78857;BME280;68207;50.078;19.936;2023-04-07T08:29:15;98905.27;;;2.40;82.38
78857;BME280;68207;50.078;19.936;2023-04-07T08:31:40;98911.73;;;2.41;82.65
78857;BME280;68207;50.078;19.936;2023-04-07T08:34:06;98915.16;;;2.40;82.40
78857;BME280;68207;50.078;19.936;2023-04-07T08:36:31;98916.30;;;2.39;82.34
78857;BME280;68207;50.078;19.936;2023-04-07T08:38:56;98918.25;;;2.36;82.35
78857;BME280;68207;50.078;19.936;2023-04-07T08:41:30;98916.35;;;2.38;82.79
78857;BME280;68207;50.078;19.936;2023-04-07T08:43:57;98924.77;;;2.46;82.52
78857;BME280;68207;50.078;19.936;2023-04-07T08:46:25;98924.48;;;2.56;82.56
78857;BME280;68207;50.078;19.936;2023-04-07T08:48:51;98934.23;;;2.61;82.16
78857;BME280;68207;50.078;19.936;2023-04-07T08:51:26;98938.64;;;2.62;82.24
78857;BME280;68207;50.078;19.936;2023-04-07T08:53:53;98938.45;;;2.62;81.91
78857;BME280;68207;50.078;19.936;2023-04-07T08:56:21;98932.27;;;2.59;81.79
78857;BME280;68207;50.078;19.936;2023-04-07T08:58:48;98928.00;;;2.60;81.73
78857;BME280;68207;50.078;19.936;2023-04-07T09:01:13;98927.02;;;2.61;81.71
78857;BME280;68207;50.078;19.936;2023-04-07T09:03:43;98926.88;;;2.57;81.65
78857;BME280;68207;50.078;19.936;2023-04-07T09:06:09;98923.63;;;2.56;81.86
78857;BME280;68207;50.078;19.936;2023-04-07T09:08:37;98922.30;;;2.55;82.02
78857;BME280;68207;50.078;19.936;2023-04-07T09:11:03;98914.38;;;2.54;81.81
78857;BME280;68207;50.078;19.936;2023-04-07T09:13:28;98910.66;;;2.53;81.81
78857;BME280;68207;50.078;19.936;2023-04-07T09:15:55;98907.83;;;2.51;81.88
78857;BME280;68207;50.078;19.936;2023-04-07T09:18:21;98899.87;;;2.50;81.93
78857;BME280;68207;50.078;19.936;2023-04-07T09:21:03;98894.79;;;2.46;81.91
78857;BME280;68207;50.078;19.936;2023-04-07T09:23:32;98893.33;;;2.43;82.04
78857;BME280;68207;50.078;19.936;2023-04-07T09:26:00;98890.21;;;2.40;82.48
78857;BME280;68207;50.078;19.936;2023-04-07T09:28:42;98891.73;;;2.41;82.29
78857;BME280;68207;50.078;19.936;2023-04-07T09:31:07;98887.64;;;2.42;82.46
78857;BME280;68207;50.078;19.936;2023-04-07T09:33:33;98891.23;;;2.45;82.68
78857;BME280;68207;50.078;19.936;2023-04-07T09:35:59;98889.27;;;2.47;82.53
78857;BME280;68207;50.078;19.936;2023-04-07T09:38:35;98886.61;;;2.48;82.60
78857;BME280;68207;50.078;19.936;2023-04-07T09:41:05;98891.01;;;2.48;82.60
78857;BME280;68207;50.078;19.936;2023-04-07T09:43:35;98888.92;;;2.48;82.78
78857;BME280;68207;50.078;19.936;2023-04-07T09:46:13;98885.88;;;2.50;82.68
78857;BME280;68207;50.078;19.936;2023-04-07T09:48:39;98889.48;;;2.51;82.61
78857;BME280;68207;50.078;19.936;2023-04-07T09:51:09;98888.09;;;2.51;82.83
78857;BME280;68207;50.078;19.936;2023-04-07T09:53:51;98889.58;;;2.52;82.79
78857;BME280;68207;50.078;19.936;2023-04-07T09:56:19;98889.18;;;2.57;82.89
78857;BME280;68207;50.078;19.936;2023-04-07T09:58:49;98890.09;;;2.58;82.85
78857;BME280;68207;50.078;19.936;2023-04-07T10:01:19;98885.71;;;2.59;82.82
78857;BME280;68207;50.078;19.936;2023-04-07T10:03:46;98884.42;;;2.58;82.88
78857;BME280;68207;50.078;19.936;2023-04-07T10:06:12;98882.94;;;2.59;82.80
78857;BME280;68207;50.078;19.936;2023-04-07T10:08:39;98882.96;;;2.65;82.76
78857;BME280;68207;50.078;19.936;2023-04-07T10:11:18;98885.48;;;2.69;82.79
78857;BME280;68207;50.078;19.936;2023-04-07T10:13:44;98883.97;;;2.68;82.55
78857;BME280;68207;50.078;19.936;2023-04-07T10:16:10;98887.91;;;2.71;82.58
78857;BME280;68207;50.078;19.936;2023-04-07T10:18:37;98886.80;;;2.74;82.53
78857;BME280;68207;50.078;19.936;2023-04-07T10:21:06;98889.06;;;2.76;82.30
78857;BME280;68207;50.078;19.936;2023-04-07T10:26:50;98889.73;;;2.83;81.90
78857;BME280;68207;50.078;19.936;2023-04-07T10:29:18;98890.05;;;2.81;81.87
78857;BME280;68207;50.078;19.936;2023-04-07T10:31:44;98892.92;;;2.80;82.20
78857;BME280;68207;50.078;19.936;2023-04-07T10:34:10;98891.48;;;2.76;81.94
78857;BME280;68207;50.078;19.936;2023-04-07T10:37:11;98883.20;;;2.77;82.24
78857;BME280;68207;50.078;19.936;2023-04-07T10:39:38;98886.17;;;2.83;82.34
78857;BME280;68207;50.078;19.936;2023-04-07T10:42:03;98881.56;;;2.88;82.24
78857;BME280;68207;50.078;19.936;2023-04-07T10:47:06;98878.80;;;2.90;82.13
78857;BME280;68207;50.078;19.936;2023-04-07T10:49:39;98874.01;;;2.91;82.12
78857;BME280;68207;50.078;19.936;2023-04-07T10:52:21;98879.13;;;3.01;82.17
78857;BME280;68207;50.078;19.936;2023-04-07T10:54:47;98877.77;;;3.09;82.14
78857;BME280;68207;50.078;19.936;2023-04-07T10:57:32;98879.42;;;3.12;81.86
78857;BME280;68207;50.078;19.936;2023-04-07T11:02:33;98877.85;;;3.08;81.71
78857;BME280;68207;50.078;19.936;2023-04-07T11:04:59;98883.11;;;3.10;81.74
78857;BME280;68207;50.078;19.936;2023-04-07T11:07:43;98895.27;;;3.13;81.85
78857;BME280;68207;50.078;19.936;2023-04-07T11:10:11;98895.92;;;3.17;81.97
78857;BME280;68207;50.078;19.936;2023-04-07T11:12:36;98887.37;;;3.24;81.93
78857;BME280;68207;50.078;19.936;2023-04-07T11:15:18;98888.83;;;3.29;81.72
78857;BME280;68207;50.078;19.936;2023-04-07T11:17:44;98896.98;;;3.36;81.72
78857;BME280;68207;50.078;19.936;2023-04-07T11:20:10;98896.09;;;3.38;81.29
78857;BME280;68207;50.078;19.936;2023-04-07T11:22:35;98894.54;;;3.46;81.39
78857;BME280;68207;50.078;19.936;2023-04-07T11:25:01;98891.05;;;3.54;81.35
78857;BME280;68207;50.078;19.936;2023-04-07T11:27:28;98892.29;;;3.54;80.79
78857;BME280;68207;50.078;19.936;2023-04-07T11:29:53;98894.00;;;3.54;80.99
78857;BME280;68207;50.078;19.936;2023-04-07T11:32:22;98893.06;;;3.55;80.81
78857;BME280;68207;50.078;19.936;2023-04-07T11:34:54;98889.64;;;3.58;80.74
78857;BME280;68207;50.078;19.936;2023-04-07T11:37:25;98893.55;;;3.64;80.56
78857;BME280;68207;50.078;19.936;2023-04-07T11:39:55;98890.82;;;3.65;80.41
78857;BME280;68207;50.078;19.936;2023-04-07T11:42:50;98899.09;;;3.70;80.34
78857;BME280;68207;50.078;19.936;2023-04-07T11:45:17;98891.33;;;3.69;79.90
78857;BME280;68207;50.078;19.936;2023-04-07T11:47:43;98894.27;;;3.66;79.86
78857;BME280;68207;50.078;19.936;2023-04-07T11:50:09;98899.70;;;3.63;80.00
78857;BME280;68207;50.078;19.936;2023-04-07T11:52:46;98902.48;;;3.68;80.16
78857;BME280;68207;50.078;19.936;2023-04-07T11:55:19;98899.43;;;3.73;80.06
78857;BME280;68207;50.078;19.936;2023-04-07T11:57:46;98896.25;;;3.73;79.98
78857;BME280;68207;50.078;19.936;2023-04-07T12:00:12;98889.84;;;3.74;80.07
78857;BME280;68207;50.078;19.936;2023-04-07T12:02:38;98891.58;;;3.70;79.86
78857;BME280;68207;50.078;19.936;2023-04-07T12:05:05;98888.72;;;3.65;79.58
78857;BME280;68207;50.078;19.936;2023-04-07T12:07:30;98890.38;;;3.64;79.74
78857;BME280;68207;50.078;19.936;2023-04-07T12:09:56;98890.68;;;3.67;79.93
78857;BME280;68207;50.078;19.936;2023-04-07T12:12:28;98893.70;;;3.72;80.12
78857;BME280;68207;50.078;19.936;2023-04-07T12:14:54;98889.20;;;3.76;80.29
78857;BME280;68207;50.078;19.936;2023-04-07T12:17:21;98883.84;;;3.73;79.95
78857;BME280;68207;50.078;19.936;2023-04-07T12:19:46;98890.10;;;3.73;80.22
78857;BME280;68207;50.078;19.936;2023-04-07T12:22:12;98887.23;;;3.74;79.96
78857;BME280;68207;50.078;19.936;2023-04-07T12:24:37;98887.88;;;3.79;80.17
78857;BME280;68207;50.078;19.936;2023-04-07T12:27:02;98890.69;;;3.87;80.20
78857;BME280;68207;50.078;19.936;2023-04-07T12:29:28;98892.31;;;3.90;80.06
78857;BME280;68207;50.078;19.936;2023-04-07T12:31:54;98899.70;;;3.90;79.96
78857;BME280;68207;50.078;19.936;2023-04-07T12:34:20;98900.48;;;3.83;79.89
78857;BME280;68207;50.078;19.936;2023-04-07T12:36:45;98902.84;;;3.77;80.16
78857;BME280;68207;50.078;19.936;2023-04-07T12:39:11;98905.02;;;3.75;79.97
78857;BME280;68207;50.078;19.936;2023-04-07T12:41:36;98904.77;;;3.73;80.32
78857;BME280;68207;50.078;19.936;2023-04-07T12:44:03;98906.34;;;3.70;80.33
78857;BME280;68207;50.078;19.936;2023-04-07T12:46:28;98909.76;;;3.70;80.35
78857;BME280;68207;50.078;19.936;2023-04-07T12:48:56;98906.14;;;3.64;80.32
78857;BME280;68207;50.078;19.936;2023-04-07T12:51:22;98905.38;;;3.65;80.40
78857;BME280;68207;50.078;19.936;2023-04-07T12:53:47;98903.55;;;3.65;80.63
78857;BME280;68207;50.078;19.936;2023-04-07T12:56:13;98904.55;;;3.64;80.56
78857;BME280;68207;50.078;19.936;2023-04-07T12:58:39;98905.11;;;3.61;80.55
78857;BME280;68207;50.078;19.936;2023-04-07T13:01:25;98908.05;;;3.60;80.92
78857;BME280;68207;50.078;19.936;2023-04-07T13:03:51;98907.58;;;3.59;80.90
78857;BME280;68207;50.078;19.936;2023-04-07T13:06:16;98904.42;;;3.59;80.82
78857;BME280;68207;50.078;19.936;2023-04-07T13:08:41;98908.84;;;3.61;80.83
78857;BME280;68207;50.078;19.936;2023-04-07T13:11:07;98907.46;;;3.65;80.86
78857;BME280;68207;50.078;19.936;2023-04-07T13:13:33;98904.59;;;3.68;81.14
78857;BME280;68207;50.078;19.936;2023-04-07T13:15:58;98909.44;;;3.68;80.99
78857;BME280;68207;50.078;19.936;2023-04-07T13:18:24;98903.96;;;3.67;80.96
78857;BME280;68207;50.078;19.936;2023-04-07T13:20:49;98899.00;;;3.63;80.97